sensor_id;sensor_type;location;lat;lon;timestamp;P1;durP1;ratioP1;P2;durP2;ratioP2
76103;SDS011;64831;44.870;37.336;2023-02-20T00:01:21;10.48;;;3.10;;
76103;SDS011;64831;44.870;37.336;2023-02-20T00:03:48;11.18;;;4.18;;
76103;SDS011;64831;44.870;37.336;2023-02-20T00:06:14;14.70;;;4.07;;
76103;SDS011;64831;44.870;37.336;2023-02-20T00:08:40;10.23;;;3.42;;
76103;SDS011;64831;44.870;37.336;2023-02-20T00:11:07;7.32;;;3.35;;
76103;SDS011;64831;44.870;37.336;2023-02-20T00:13:33;11.85;;;3.22;;
76103;SDS011;64831;44.870;37.336;2023-02-20T00:15:58;8.63;;;3.40;;
76103;SDS011;64831;44.870;37.336;2023-02-20T00:18:24;13.02;;;3.90;;
76103;SDS011;64831;44.870;37.336;2023-02-20T00:20:50;14.32;;;4.72;;
76103;SDS011;64831;44.870;37.336;2023-02-20T00:23:16;18.75;;;5.20;;
76103;SDS011;64831;44.870;37.336;2023-02-20T00:25:42;9.73;;;4.18;;
76103;SDS011;64831;44.870;37.336;2023-02-20T00:28:08;8.27;;;3.08;;
76103;SDS011;64831;44.870;37.336;2023-02-20T00:30:34;9.73;;;4.00;;
76103;SDS011;64831;44.870;37.336;2023-02-20T00:33:00;15.88;;;3.45;;
76103;SDS011;64831;44.870;37.336;2023-02-20T00:35:26;11.35;;;3.65;;
76103;SDS011;64831;44.870;37.336;2023-02-20T00:37:52;9.95;;;2.22;;
76103;SDS011;64831;44.870;37.336;2023-02-20T00:40:20;14.18;;;3.85;;
76103;SDS011;64831;44.870;37.336;2023-02-20T00:42:47;10.70;;;3.10;;
76103;SDS011;64831;44.870;37.336;2023-02-20T00:45:13;12.00;;;3.55;;
76103;SDS011;64831;44.870;37.336;2023-02-20T00:47:41;17.02;;;3.85;;
76103;SDS011;64831;44.870;37.336;2023-02-20T00:50:08;15.32;;;4.32;;
76103;SDS011;64831;44.870;37.336;2023-02-20T00:52:34;16.67;;;4.30;;
76103;SDS011;64831;44.870;37.336;2023-02-20T00:55:01;8.05;;;3.15;;
76103;SDS011;64831;44.870;37.336;2023-02-20T00:57:27;15.98;;;4.03;;
76103;SDS011;64831;44.870;37.336;2023-02-20T00:59:53;16.92;;;3.28;;
76103;SDS011;64831;44.870;37.336;2023-02-20T01:02:19;10.43;;;3.47;;
76103;SDS011;64831;44.870;37.336;2023-02-20T01:04:47;12.93;;;3.95;;
76103;SDS011;64831;44.870;37.336;2023-02-20T01:07:13;20.30;;;4.28;;
76103;SDS011;64831;44.870;37.336;2023-02-20T01:09:39;13.20;;;3.75;;
76103;SDS011;64831;44.870;37.336;2023-02-20T01:12:05;15.18;;;4.43;;
76103;SDS011;64831;44.870;37.336;2023-02-20T01:14:30;18.30;;;4.22;;
76103;SDS011;64831;44.870;37.336;2023-02-20T01:16:59;13.73;;;4.32;;
76103;SDS011;64831;44.870;37.336;2023-02-20T01:19:26;10.73;;;3.63;;
76103;SDS011;64831;44.870;37.336;2023-02-20T01:21:52;13.27;;;3.85;;
76103;SDS011;64831;44.870;37.336;2023-02-20T01:24:18;15.15;;;3.33;;
76103;SDS011;64831;44.870;37.336;2023-02-20T01:26:46;12.43;;;3.38;;
76103;SDS011;64831;44.870;37.336;2023-02-20T01:29:14;8.63;;;2.92;;
76103;SDS011;64831;44.870;37.336;2023-02-20T01:31:48;16.17;;;3.40;;
76103;SDS011;64831;44.870;37.336;2023-02-20T01:34:16;9.65;;;3.13;;
76103;SDS011;64831;44.870;37.336;2023-02-20T01:36:46;12.93;;;3.00;;
76103;SDS011;64831;44.870;37.336;2023-02-20T01:39:17;14.82;;;3.67;;
76103;SDS011;64831;44.870;37.336;2023-02-20T01:41:45;8.40;;;3.08;;
76103;SDS011;64831;44.870;37.336;2023-02-20T01:44:18;11.27;;;3.00;;
76103;SDS011;64831;44.870;37.336;2023-02-20T01:46:46;11.27;;;3.40;;
76103;SDS011;64831;44.870;37.336;2023-02-20T01:49:18;12.60;;;2.97;;
76103;SDS011;64831;44.870;37.336;2023-02-20T01:54:44;9.48;;;2.72;;
76103;SDS011;64831;44.870;37.336;2023-02-20T01:57:16;12.05;;;2.60;;
76103;SDS011;64831;44.870;37.336;2023-02-20T01:59:45;9.35;;;2.83;;
76103;SDS011;64831;44.870;37.336;2023-02-20T02:02:14;8.80;;;1.60;;
76103;SDS011;64831;44.870;37.336;2023-02-20T02:04:40;12.00;;;2.83;;
76103;SDS011;64831;44.870;37.336;2023-02-20T02:07:09;10.00;;;2.55;;
76103;SDS011;64831;44.870;37.336;2023-02-20T02:12:02;2.72;;;1.80;;
76103;SDS011;64831;44.870;37.336;2023-02-20T02:14:29;4.85;;;1.58;;
76103;SDS011;64831;44.870;37.336;2023-02-20T02:25:51;5.20;;;1.85;;
76103;SDS011;64831;44.870;37.336;2023-02-20T02:42:34;5.90;;;2.35;;
76103;SDS011;64831;44.870;37.336;2023-02-20T02:48:04;6.07;;;2.35;;
76103;SDS011;64831;44.870;37.336;2023-02-20T02:50:44;7.82;;;3.05;;
76103;SDS011;64831;44.870;37.336;2023-02-20T02:53:12;11.77;;;3.40;;
76103;SDS011;64831;44.870;37.336;2023-02-20T02:55:39;5.90;;;2.13;;
76103;SDS011;64831;44.870;37.336;2023-02-20T02:58:06;10.23;;;2.85;;
76103;SDS011;64831;44.870;37.336;2023-02-20T03:03:18;8.95;;;2.45;;
76103;SDS011;64831;44.870;37.336;2023-02-20T03:05:55;18.73;;;3.15;;
76103;SDS011;64831;44.870;37.336;2023-02-20T03:08:25;10.02;;;2.30;;
76103;SDS011;64831;44.870;37.336;2023-02-20T03:19:49;19.10;;;3.67;;
76103;SDS011;64831;44.870;37.336;2023-02-20T03:22:19;14.20;;;3.35;;
76103;SDS011;64831;44.870;37.336;2023-02-20T03:24:50;16.95;;;4.32;;
76103;SDS011;64831;44.870;37.336;2023-02-20T03:27:38;12.80;;;4.07;;
76103;SDS011;64831;44.870;37.336;2023-02-20T03:30:27;8.05;;;3.38;;
76103;SDS011;64831;44.870;37.336;2023-02-20T03:33:12;19.90;;;4.07;;
76103;SDS011;64831;44.870;37.336;2023-02-20T03:36:06;13.02;;;3.45;;
76103;SDS011;64831;44.870;37.336;2023-02-20T03:38:58;17.75;;;3.85;;
76103;SDS011;64831;44.870;37.336;2023-02-20T03:41:46;6.07;;;2.53;;
76103;SDS011;64831;44.870;37.336;2023-02-20T03:44:33;13.70;;;4.80;;
76103;SDS011;64831;44.870;37.336;2023-02-20T03:47:02;19.90;;;4.93;;
76103;SDS011;64831;44.870;37.336;2023-02-20T03:49:36;16.70;;;5.03;;
76103;SDS011;64831;44.870;37.336;2023-02-20T03:52:08;15.55;;;4.72;;
76103;SDS011;64831;44.870;37.336;2023-02-20T03:54:38;25.48;;;6.57;;
76103;SDS011;64831;44.870;37.336;2023-02-20T03:57:07;12.82;;;4.82;;
76103;SDS011;64831;44.870;37.336;2023-02-20T03:59:49;19.73;;;5.13;;
76103;SDS011;64831;44.870;37.336;2023-02-20T04:02:24;22.33;;;5.78;;
76103;SDS011;64831;44.870;37.336;2023-02-20T04:04:57;19.58;;;6.10;;
76103;SDS011;64831;44.870;37.336;2023-02-20T04:07:33;13.50;;;4.25;;
76103;SDS011;64831;44.870;37.336;2023-02-20T04:10:06;14.75;;;5.00;;
76103;SDS011;64831;44.870;37.336;2023-02-20T04:12:37;14.55;;;6.15;;
76103;SDS011;64831;44.870;37.336;2023-02-20T04:15:08;14.00;;;4.22;;
76103;SDS011;64831;44.870;37.336;2023-02-20T04:17:49;17.00;;;6.20;;
76103;SDS011;64831;44.870;37.336;2023-02-20T04:20:19;18.00;;;5.22;;
76103;SDS011;64831;44.870;37.336;2023-02-20T04:22:58;17.00;;;5.55;;
76103;SDS011;64831;44.870;37.336;2023-02-20T04:26:30;25.67;;;6.65;;
76103;SDS011;64831;44.870;37.336;2023-02-20T04:30:59;17.83;;;5.55;;
76103;SDS011;64831;44.870;37.336;2023-02-20T04:33:25;12.93;;;3.47;;
76103;SDS011;64831;44.870;37.336;2023-02-20T04:35:57;20.90;;;6.88;;
76103;SDS011;64831;44.870;37.336;2023-02-20T04:38:23;22.38;;;6.90;;
76103;SDS011;64831;44.870;37.336;2023-02-20T04:40:50;30.13;;;6.90;;
76103;SDS011;64831;44.870;37.336;2023-02-20T04:43:18;27.85;;;6.60;;
76103;SDS011;64831;44.870;37.336;2023-02-20T04:45:44;18.13;;;6.53;;
76103;SDS011;64831;44.870;37.336;2023-02-20T04:48:11;18.90;;;6.32;;
76103;SDS011;64831;44.870;37.336;2023-02-20T04:50:37;19.40;;;6.97;;
76103;SDS011;64831;44.870;37.336;2023-02-20T04:53:04;26.88;;;10.05;;
76103;SDS011;64831;44.870;37.336;2023-02-20T04:55:32;18.20;;;6.68;;
76103;SDS011;64831;44.870;37.336;2023-02-20T04:58:04;23.38;;;7.65;;
76103;SDS011;64831;44.870;37.336;2023-02-20T05:00:45;23.08;;;6.03;;
76103;SDS011;64831;44.870;37.336;2023-02-20T05:03:11;17.02;;;6.60;;
76103;SDS011;64831;44.870;37.336;2023-02-20T05:05:37;25.63;;;8.52;;
76103;SDS011;64831;44.870;37.336;2023-02-20T05:08:04;22.17;;;7.65;;
76103;SDS011;64831;44.870;37.336;2023-02-20T05:10:32;15.73;;;5.25;;
76103;SDS011;64831;44.870;37.336;2023-02-20T05:12:59;23.88;;;7.95;;
76103;SDS011;64831;44.870;37.336;2023-02-20T05:15:26;22.73;;;7.97;;
76103;SDS011;64831;44.870;37.336;2023-02-20T05:17:55;13.35;;;6.50;;
76103;SDS011;64831;44.870;37.336;2023-02-20T05:20:21;28.52;;;9.57;;
76103;SDS011;64831;44.870;37.336;2023-02-20T05:23:07;31.05;;;9.38;;
76103;SDS011;64831;44.870;37.336;2023-02-20T05:25:33;19.10;;;6.40;;
76103;SDS011;64831;44.870;37.336;2023-02-20T08:50:16;5.85;;;1.90;;
76103;SDS011;64831;44.870;37.336;2023-02-20T08:52:43;4.95;;;2.58;;
76103;SDS011;64831;44.870;37.336;2023-02-20T08:55:10;4.03;;;1.92;;
76103;SDS011;64831;44.870;37.336;2023-02-20T08:57:37;2.28;;;1.10;;
76103;SDS011;64831;44.870;37.336;2023-02-20T09:00:06;7.88;;;1.50;;
76103;SDS011;64831;44.870;37.336;2023-02-20T09:02:32;6.38;;;1.55;;
76103;SDS011;64831;44.870;37.336;2023-02-20T09:04:58;4.10;;;1.58;;
76103;SDS011;64831;44.870;37.336;2023-02-20T09:07:24;5.35;;;1.45;;
76103;SDS011;64831;44.870;37.336;2023-02-20T09:09:50;2.80;;;1.27;;
76103;SDS011;64831;44.870;37.336;2023-02-20T09:12:16;4.20;;;1.23;;
76103;SDS011;64831;44.870;37.336;2023-02-20T09:14:43;12.70;;;2.58;;
76103;SDS011;64831;44.870;37.336;2023-02-20T09:17:09;1.20;;;0.95;;
76103;SDS011;64831;44.870;37.336;2023-02-20T09:19:35;5.85;;;1.77;;
76103;SDS011;64831;44.870;37.336;2023-02-20T09:22:01;2.22;;;1.50;;
76103;SDS011;64831;44.870;37.336;2023-02-20T09:24:26;1.15;;;0.80;;
76103;SDS011;64831;44.870;37.336;2023-02-20T09:26:56;1.60;;;0.93;;
76103;SDS011;64831;44.870;37.336;2023-02-20T09:29:22;2.45;;;1.30;;
76103;SDS011;64831;44.870;37.336;2023-02-20T09:31:48;1.90;;;1.30;;
76103;SDS011;64831;44.870;37.336;2023-02-20T09:34:14;2.92;;;1.10;;
76103;SDS011;64831;44.870;37.336;2023-02-20T09:36:40;1.55;;;1.15;;
76103;SDS011;64831;44.870;37.336;2023-02-20T09:39:06;2.85;;;1.58;;
76103;SDS011;64831;44.870;37.336;2023-02-20T09:41:35;3.05;;;1.00;;
76103;SDS011;64831;44.870;37.336;2023-02-20T09:44:11;1.48;;;1.15;;
76103;SDS011;64831;44.870;37.336;2023-02-20T09:46:44;2.78;;;1.38;;
76103;SDS011;64831;44.870;37.336;2023-02-20T09:51:56;3.08;;;1.48;;
76103;SDS011;64831;44.870;37.336;2023-02-20T09:56:58;1.20;;;0.93;;
76103;SDS011;64831;44.870;37.336;2023-02-20T09:59:27;4.18;;;1.90;;
76103;SDS011;64831;44.870;37.336;2023-02-20T10:02:04;4.70;;;1.75;;
76103;SDS011;64831;44.870;37.336;2023-02-20T10:04:49;2.63;;;1.33;;
76103;SDS011;64831;44.870;37.336;2023-02-20T10:09:51;2.70;;;1.67;;
76103;SDS011;64831;44.870;37.336;2023-02-20T10:12:35;2.20;;;1.55;;
76103;SDS011;64831;44.870;37.336;2023-02-20T10:22:52;2.17;;;1.10;;
76103;SDS011;64831;44.870;37.336;2023-02-20T10:25:27;2.80;;;1.58;;
76103;SDS011;64831;44.870;37.336;2023-02-20T10:30:38;1.27;;;1.13;;
76103;SDS011;64831;44.870;37.336;2023-02-20T10:35:59;1.10;;;1.00;;
76103;SDS011;64831;44.870;37.336;2023-02-20T10:38:37;6.38;;;1.35;;
76103;SDS011;64831;44.870;37.336;2023-02-20T10:44:00;4.28;;;1.73;;
76103;SDS011;64831;44.870;37.336;2023-02-20T10:46:51;2.40;;;1.45;;
76103;SDS011;64831;44.870;37.336;2023-02-20T10:49:48;3.97;;;1.75;;
76103;SDS011;64831;44.870;37.336;2023-02-20T10:52:18;6.05;;;2.28;;
76103;SDS011;64831;44.870;37.336;2023-02-20T10:55:00;1.52;;;1.02;;
76103;SDS011;64831;44.870;37.336;2023-02-20T10:57:39;1.17;;;0.80;;
76103;SDS011;64831;44.870;37.336;2023-02-20T11:00:36;4.72;;;2.05;;
76103;SDS011;64831;44.870;37.336;2023-02-20T11:03:17;2.67;;;2.13;;
76103;SDS011;64831;44.870;37.336;2023-02-20T11:05:50;4.13;;;1.90;;
76103;SDS011;64831;44.870;37.336;2023-02-20T11:08:19;4.70;;;2.28;;
76103;SDS011;64831;44.870;37.336;2023-02-20T11:10:46;3.42;;;1.92;;
76103;SDS011;64831;44.870;37.336;2023-02-20T11:13:17;1.83;;;1.13;;
76103;SDS011;64831;44.870;37.336;2023-02-20T11:15:47;1.52;;;1.13;;
76103;SDS011;64831;44.870;37.336;2023-02-20T11:18:22;1.60;;;1.17;;
76103;SDS011;64831;44.870;37.336;2023-02-20T11:20:56;2.50;;;1.85;;
76103;SDS011;64831;44.870;37.336;2023-02-20T11:23:35;6.75;;;3.50;;
76103;SDS011;64831;44.870;37.336;2023-02-20T11:28:57;5.32;;;1.45;;
76103;SDS011;64831;44.870;37.336;2023-02-20T11:31:24;4.72;;;2.65;;
76103;SDS011;64831;44.870;37.336;2023-02-20T11:33:50;1.77;;;1.30;;
76103;SDS011;64831;44.870;37.336;2023-02-20T11:36:23;0.80;;;0.80;;
76103;SDS011;64831;44.870;37.336;2023-02-20T11:38:59;9.70;;;3.50;;
76103;SDS011;64831;44.870;37.336;2023-02-20T11:41:28;10.02;;;3.67;;
76103;SDS011;64831;44.870;37.336;2023-02-20T11:44:07;8.75;;;3.30;;
76103;SDS011;64831;44.870;37.336;2023-02-20T11:46:43;8.32;;;3.78;;
76103;SDS011;64831;44.870;37.336;2023-02-20T11:49:27;3.90;;;2.45;;
76103;SDS011;64831;44.870;37.336;2023-02-20T11:52:05;3.08;;;1.60;;
76103;SDS011;64831;44.870;37.336;2023-02-20T11:54:33;2.28;;;1.55;;
76103;SDS011;64831;44.870;37.336;2023-02-20T11:57:15;7.00;;;3.90;;
76103;SDS011;64831;44.870;37.336;2023-02-20T11:59:46;8.27;;;3.83;;
76103;SDS011;64831;44.870;37.336;2023-02-20T12:04:43;7.00;;;3.70;;
76103;SDS011;64831;44.870;37.336;2023-02-20T12:07:25;3.63;;;1.90;;
76103;SDS011;64831;44.870;37.336;2023-02-20T12:10:19;8.35;;;3.50;;
76103;SDS011;64831;44.870;37.336;2023-02-20T12:15:12;7.30;;;2.55;;
76103;SDS011;64831;44.870;37.336;2023-02-20T12:17:49;8.60;;;4.43;;
76103;SDS011;64831;44.870;37.336;2023-02-20T12:20:33;6.07;;;3.08;;
76103;SDS011;64831;44.870;37.336;2023-02-20T12:34:05;2.50;;;1.23;;
76103;SDS011;64831;44.870;37.336;2023-02-20T12:36:43;0.90;;;0.90;;
76103;SDS011;64831;44.870;37.336;2023-02-20T12:42:09;12.02;;;3.15;;
76103;SDS011;64831;44.870;37.336;2023-02-20T12:47:21;4.70;;;2.65;;
76103;SDS011;64831;44.870;37.336;2023-02-20T13:02:15;5.78;;;3.08;;
76103;SDS011;64831;44.870;37.336;2023-02-20T13:04:56;6.15;;;2.72;;
76103;SDS011;64831;44.870;37.336;2023-02-20T13:07:29;7.80;;;2.28;;
76103;SDS011;64831;44.870;37.336;2023-02-20T13:12:50;6.78;;;2.15;;
76103;SDS011;64831;44.870;37.336;2023-02-20T13:17:58;5.80;;;2.22;;
76103;SDS011;64831;44.870;37.336;2023-02-20T13:20:43;4.65;;;2.22;;
76103;SDS011;64831;44.870;37.336;2023-02-20T13:33:47;5.60;;;1.70;;
76103;SDS011;64831;44.870;37.336;2023-02-20T13:44:38;6.88;;;1.65;;
76103;SDS011;64831;44.870;37.336;2023-02-20T13:57:49;4.40;;;1.17;;
76103;SDS011;64831;44.870;37.336;2023-02-20T14:02:58;4.47;;;1.42;;
76103;SDS011;64831;44.870;37.336;2023-02-20T14:05:25;3.40;;;1.30;;
76103;SDS011;64831;44.870;37.336;2023-02-20T14:07:56;0.77;;;0.77;;
76103;SDS011;64831;44.870;37.336;2023-02-20T14:13:03;1.77;;;0.75;;
76103;SDS011;64831;44.870;37.336;2023-02-20T14:15:50;4.95;;;1.63;;
76103;SDS011;64831;44.870;37.336;2023-02-20T14:18:19;2.42;;;1.17;;
76103;SDS011;64831;44.870;37.336;2023-02-20T14:23:34;4.90;;;1.42;;
76103;SDS011;64831;44.870;37.336;2023-02-20T14:26:03;9.20;;;1.83;;
76103;SDS011;64831;44.870;37.336;2023-02-20T14:28:46;2.63;;;1.13;;
76103;SDS011;64831;44.870;37.336;2023-02-20T14:33:55;3.50;;;1.20;;
76103;SDS011;64831;44.870;37.336;2023-02-20T14:36:33;3.28;;;1.13;;
76103;SDS011;64831;44.870;37.336;2023-02-20T14:41:55;5.78;;;1.52;;
76103;SDS011;64831;44.870;37.336;2023-02-20T14:44:22;4.10;;;1.55;;
76103;SDS011;64831;44.870;37.336;2023-02-20T14:47:04;2.20;;;1.27;;
76103;SDS011;64831;44.870;37.336;2023-02-20T14:49:37;3.42;;;1.30;;
76103;SDS011;64831;44.870;37.336;2023-02-20T14:52:09;5.50;;;1.27;;
76103;SDS011;64831;44.870;37.336;2023-02-20T14:54:37;4.22;;;1.50;;
76103;SDS011;64831;44.870;37.336;2023-02-20T14:57:05;2.10;;;1.15;;
76103;SDS011;64831;44.870;37.336;2023-02-20T14:59:33;1.30;;;0.80;;
76103;SDS011;64831;44.870;37.336;2023-02-20T15:02:01;7.95;;;1.40;;
76103;SDS011;64831;44.870;37.336;2023-02-20T15:07:15;4.97;;;0.93;;
76103;SDS011;64831;44.870;37.336;2023-02-20T15:09:44;3.03;;;1.05;;
76103;SDS011;64831;44.870;37.336;2023-02-20T15:12:22;2.38;;;1.08;;
76103;SDS011;64831;44.870;37.336;2023-02-20T15:14:53;1.60;;;1.10;;
76103;SDS011;64831;44.870;37.336;2023-02-20T15:17:24;15.63;;;1.42;;
76103;SDS011;64831;44.870;37.336;2023-02-20T15:19:51;1.23;;;0.77;;
76103;SDS011;64831;44.870;37.336;2023-02-20T15:22:30;1.25;;;0.82;;
76103;SDS011;64831;44.870;37.336;2023-02-20T15:28:02;1.75;;;0.75;;
76103;SDS011;64831;44.870;37.336;2023-02-20T15:30:32;3.47;;;1.20;;
76103;SDS011;64831;44.870;37.336;2023-02-20T15:32:59;2.05;;;0.90;;
76103;SDS011;64831;44.870;37.336;2023-02-20T15:35:26;3.00;;;1.10;;
76103;SDS011;64831;44.870;37.336;2023-02-20T15:37:55;5.30;;;1.15;;
76103;SDS011;64831;44.870;37.336;2023-02-20T15:40:28;5.22;;;1.25;;
76103;SDS011;64831;44.870;37.336;2023-02-20T15:42:56;3.22;;;1.45;;
76103;SDS011;64831;44.870;37.336;2023-02-20T15:45:25;2.92;;;1.05;;
76103;SDS011;64831;44.870;37.336;2023-02-20T15:47:53;1.23;;;1.13;;
76103;SDS011;64831;44.870;37.336;2023-02-20T15:50:19;6.45;;;1.50;;
76103;SDS011;64831;44.870;37.336;2023-02-20T15:52:45;4.85;;;1.13;;
76103;SDS011;64831;44.870;37.336;2023-02-20T15:55:15;1.30;;;0.70;;
76103;SDS011;64831;44.870;37.336;2023-02-20T15:57:44;1.15;;;0.60;;
76103;SDS011;64831;44.870;37.336;2023-02-20T16:00:20;11.93;;;1.23;;
76103;SDS011;64831;44.870;37.336;2023-02-20T16:02:49;1.00;;;0.80;;
76103;SDS011;64831;44.870;37.336;2023-02-20T16:05:15;3.38;;;2.35;;
76103;SDS011;64831;44.870;37.336;2023-02-20T16:07:41;1.48;;;0.60;;
76103;SDS011;64831;44.870;37.336;2023-02-20T16:10:07;0.82;;;0.55;;
76103;SDS011;64831;44.870;37.336;2023-02-20T16:12:34;0.95;;;0.60;;
76103;SDS011;64831;44.870;37.336;2023-02-20T16:15:02;2.53;;;1.08;;
76103;SDS011;64831;44.870;37.336;2023-02-20T16:17:29;3.33;;;0.80;;
76103;SDS011;64831;44.870;37.336;2023-02-20T16:19:58;0.50;;;0.50;;
76103;SDS011;64831;44.870;37.336;2023-02-20T16:22:24;0.85;;;0.80;;
76103;SDS011;64831;44.870;37.336;2023-02-20T16:24:50;3.85;;;0.75;;
76103;SDS011;64831;44.870;37.336;2023-02-20T16:27:25;1.52;;;0.80;;
76103;SDS011;64831;44.870;37.336;2023-02-20T16:29:54;0.90;;;0.65;;
76103;SDS011;64831;44.870;37.336;2023-02-20T16:32:22;1.55;;;0.75;;
76103;SDS011;64831;44.870;37.336;2023-02-20T16:34:50;1.67;;;0.90;;
76103;SDS011;64831;44.870;37.336;2023-02-20T16:37:17;1.58;;;0.80;;
76103;SDS011;64831;44.870;37.336;2023-02-20T16:39:44;2.83;;;0.82;;
76103;SDS011;64831;44.870;37.336;2023-02-20T16:42:17;0.82;;;0.45;;
76103;SDS011;64831;44.870;37.336;2023-02-20T16:44:49;0.75;;;0.47;;
76103;SDS011;64831;44.870;37.336;2023-02-20T16:47:17;1.70;;;0.70;;
76103;SDS011;64831;44.870;37.336;2023-02-20T16:49:47;2.72;;;1.05;;
76103;SDS011;64831;44.870;37.336;2023-02-20T16:57:14;1.45;;;0.65;;
76103;SDS011;64831;44.870;37.336;2023-02-20T16:59:41;1.40;;;0.60;;
76103;SDS011;64831;44.870;37.336;2023-02-20T17:02:14;1.08;;;0.65;;
76103;SDS011;64831;44.870;37.336;2023-02-20T17:04:47;3.92;;;1.25;;
76103;SDS011;64831;44.870;37.336;2023-02-20T17:07:14;3.88;;;0.98;;
76103;SDS011;64831;44.870;37.336;2023-02-20T17:09:40;3.55;;;1.23;;
76103;SDS011;64831;44.870;37.336;2023-02-20T17:12:07;6.05;;;0.90;;
76103;SDS011;64831;44.870;37.336;2023-02-20T17:14:33;1.38;;;0.90;;
76103;SDS011;64831;44.870;37.336;2023-02-20T17:16:59;3.67;;;1.33;;
76103;SDS011;64831;44.870;37.336;2023-02-20T17:19:25;2.85;;;0.85;;
76103;SDS011;64831;44.870;37.336;2023-02-20T17:21:51;2.10;;;1.00;;
76103;SDS011;64831;44.870;37.336;2023-02-20T17:24:17;3.15;;;1.08;;
76103;SDS011;64831;44.870;37.336;2023-02-20T17:26:44;2.15;;;0.90;;
76103;SDS011;64831;44.870;37.336;2023-02-20T17:29:10;3.40;;;0.80;;
76103;SDS011;64831;44.870;37.336;2023-02-20T17:31:37;1.92;;;1.20;;
76103;SDS011;64831;44.870;37.336;2023-02-20T17:34:04;2.60;;;1.40;;
76103;SDS011;64831;44.870;37.336;2023-02-20T17:36:30;1.80;;;1.00;;
76103;SDS011;64831;44.870;37.336;2023-02-20T17:38:57;4.22;;;1.35;;
76103;SDS011;64831;44.870;37.336;2023-02-20T17:41:23;2.75;;;1.00;;
76103;SDS011;64831;44.870;37.336;2023-02-20T17:43:49;3.25;;;0.98;;
76103;SDS011;64831;44.870;37.336;2023-02-20T17:46:16;2.17;;;0.98;;
76103;SDS011;64831;44.870;37.336;2023-02-20T17:48:42;1.40;;;0.80;;
76103;SDS011;64831;44.870;37.336;2023-02-20T17:51:08;4.07;;;1.50;;
76103;SDS011;64831;44.870;37.336;2023-02-20T17:53:34;6.50;;;1.38;;
76103;SDS011;64831;44.870;37.336;2023-02-20T17:56:00;2.42;;;1.30;;
76103;SDS011;64831;44.870;37.336;2023-02-20T17:58:26;4.97;;;1.25;;
76103;SDS011;64831;44.870;37.336;2023-02-20T18:00:52;2.60;;;1.13;;
76103;SDS011;64831;44.870;37.336;2023-02-20T18:03:18;2.15;;;1.10;;
76103;SDS011;64831;44.870;37.336;2023-02-20T18:05:43;1.10;;;0.50;;
76103;SDS011;64831;44.870;37.336;2023-02-20T18:08:09;3.83;;;1.23;;
76103;SDS011;64831;44.870;37.336;2023-02-20T18:10:35;3.35;;;1.38;;
76103;SDS011;64831;44.870;37.336;2023-02-20T18:13:01;2.08;;;0.90;;
76103;SDS011;64831;44.870;37.336;2023-02-20T18:15:28;1.83;;;1.23;;
76103;SDS011;64831;44.870;37.336;2023-02-20T18:17:55;2.63;;;1.17;;
76103;SDS011;64831;44.870;37.336;2023-02-20T18:20:21;2.40;;;1.10;;
76103;SDS011;64831;44.870;37.336;2023-02-20T18:22:47;2.47;;;1.30;;
76103;SDS011;64831;44.870;37.336;2023-02-20T18:25:12;9.48;;;1.85;;
76103;SDS011;64831;44.870;37.336;2023-02-20T18:27:38;5.97;;;1.65;;
76103;SDS011;64831;44.870;37.336;2023-02-20T18:30:04;3.08;;;1.50;;
76103;SDS011;64831;44.870;37.336;2023-02-20T18:32:30;1.85;;;0.98;;
76103;SDS011;64831;44.870;37.336;2023-02-20T18:34:56;4.07;;;1.38;;
76103;SDS011;64831;44.870;37.336;2023-02-20T18:37:22;0.60;;;0.60;;
76103;SDS011;64831;44.870;37.336;2023-02-20T18:39:48;3.85;;;1.52;;
76103;SDS011;64831;44.870;37.336;2023-02-20T18:42:14;2.72;;;1.05;;
76103;SDS011;64831;44.870;37.336;2023-02-20T18:44:40;1.33;;;1.00;;
76103;SDS011;64831;44.870;37.336;2023-02-20T18:47:11;2.60;;;1.00;;
76103;SDS011;64831;44.870;37.336;2023-02-20T18:49:37;2.58;;;1.70;;
76103;SDS011;64831;44.870;37.336;2023-02-20T18:52:03;1.17;;;0.98;;
76103;SDS011;64831;44.870;37.336;2023-02-20T18:54:29;3.20;;;1.42;;
76103;SDS011;64831;44.870;37.336;2023-02-20T18:56:57;2.90;;;1.10;;
76103;SDS011;64831;44.870;37.336;2023-02-20T18:59:25;1.20;;;1.02;;
76103;SDS011;64831;44.870;37.336;2023-02-20T19:01:55;2.70;;;1.60;;
76103;SDS011;64831;44.870;37.336;2023-02-20T19:04:22;1.95;;;1.17;;
76103;SDS011;64831;44.870;37.336;2023-02-20T19:06:49;1.85;;;0.70;;
76103;SDS011;64831;44.870;37.336;2023-02-20T19:09:17;1.88;;;0.98;;
76103;SDS011;64831;44.870;37.336;2023-02-20T19:11:54;2.72;;;1.65;;
76103;SDS011;64831;44.870;37.336;2023-02-20T19:14:21;3.35;;;1.48;;
76103;SDS011;64831;44.870;37.336;2023-02-20T19:16:52;18.90;;;1.33;;
76103;SDS011;64831;44.870;37.336;2023-02-20T19:19:20;4.63;;;1.50;;
76103;SDS011;64831;44.870;37.336;2023-02-20T19:21:48;1.65;;;1.02;;
76103;SDS011;64831;44.870;37.336;2023-02-20T19:24:14;4.10;;;1.33;;
76103;SDS011;64831;44.870;37.336;2023-02-20T19:26:41;1.60;;;0.98;;
76103;SDS011;64831;44.870;37.336;2023-02-20T19:29:07;1.85;;;0.93;;
76103;SDS011;64831;44.870;37.336;2023-02-20T19:31:33;1.83;;;1.17;;
76103;SDS011;64831;44.870;37.336;2023-02-20T19:33:59;1.25;;;0.90;;
76103;SDS011;64831;44.870;37.336;2023-02-20T19:36:25;1.38;;;0.80;;
76103;SDS011;64831;44.870;37.336;2023-02-20T19:38:51;0.82;;;0.77;;
76103;SDS011;64831;44.870;37.336;2023-02-20T19:41:17;5.60;;;1.10;;
76103;SDS011;64831;44.870;37.336;2023-02-20T19:43:45;3.70;;;0.85;;
76103;SDS011;64831;44.870;37.336;2023-02-20T19:46:13;3.00;;;1.10;;
76103;SDS011;64831;44.870;37.336;2023-02-20T19:48:39;5.47;;;1.17;;
76103;SDS011;64831;44.870;37.336;2023-02-20T19:51:08;1.95;;;1.10;;
76103;SDS011;64831;44.870;37.336;2023-02-20T19:53:38;2.78;;;0.40;;
76103;SDS011;64831;44.870;37.336;2023-02-20T19:56:04;1.75;;;1.30;;
76103;SDS011;64831;44.870;37.336;2023-02-20T19:58:32;2.28;;;1.30;;
76103;SDS011;64831;44.870;37.336;2023-02-20T20:01:00;2.33;;;1.20;;
76103;SDS011;64831;44.870;37.336;2023-02-20T20:03:26;1.42;;;0.98;;
76103;SDS011;64831;44.870;37.336;2023-02-20T20:05:52;1.58;;;0.95;;
76103;SDS011;64831;44.870;37.336;2023-02-20T20:08:18;2.83;;;1.45;;
76103;SDS011;64831;44.870;37.336;2023-02-20T20:10:44;2.38;;;1.25;;
76103;SDS011;64831;44.870;37.336;2023-02-20T20:13:10;7.68;;;1.70;;
76103;SDS011;64831;44.870;37.336;2023-02-20T20:15:36;3.65;;;1.40;;
76103;SDS011;64831;44.870;37.336;2023-02-20T20:18:02;2.92;;;1.58;;
76103;SDS011;64831;44.870;37.336;2023-02-20T20:20:29;1.77;;;1.27;;
76103;SDS011;64831;44.870;37.336;2023-02-20T20:22:57;1.38;;;0.85;;
76103;SDS011;64831;44.870;37.336;2023-02-20T20:25:25;4.55;;;1.25;;
76103;SDS011;64831;44.870;37.336;2023-02-20T20:27:52;1.02;;;0.88;;
76103;SDS011;64831;44.870;37.336;2023-02-20T20:30:25;2.35;;;1.50;;
76103;SDS011;64831;44.870;37.336;2023-02-20T20:32:52;3.15;;;1.05;;
76103;SDS011;64831;44.870;37.336;2023-02-20T20:35:21;1.60;;;1.20;;
76103;SDS011;64831;44.870;37.336;2023-02-20T20:37:47;4.60;;;1.17;;
76103;SDS011;64831;44.870;37.336;2023-02-20T20:40:14;3.03;;;1.30;;
76103;SDS011;64831;44.870;37.336;2023-02-20T20:42:41;1.45;;;1.10;;
76103;SDS011;64831;44.870;37.336;2023-02-20T20:45:08;1.75;;;1.10;;
76103;SDS011;64831;44.870;37.336;2023-02-20T20:47:34;3.88;;;1.15;;
76103;SDS011;64831;44.870;37.336;2023-02-20T20:50:01;1.80;;;1.30;;
76103;SDS011;64831;44.870;37.336;2023-02-20T20:52:28;1.75;;;0.70;;
76103;SDS011;64831;44.870;37.336;2023-02-20T20:54:55;3.17;;;1.40;;